Terminal Aerodrome Forecast
Issued by NWS Austin/San Antonio, TX

Home | Current Version | Previous Version | Text Only | Print | Product List | Glossary On
Versions: 1 2 3 4 5 6 7 8 9 10 11 12 13 14 15 16 17 18 19
000
FTUS44 KEWX 210500
TAFDRT
TAF
KDRT 210523Z 2106/2206 11005KT P6SM BKN035 OVC060
     FM211100 10006KT P6SM BKN025
     FM211800 13011KT P6SM BKN040
     FM220100 12007KT P6SM BKN100=

USA.gov is the U.S. government's official web portal to all federal, state and local government web resources and services.